createdAt,value
2022-11-03T00:04:30.922Z,99887.75
2022-11-03T00:07:27.437Z,99885.38
2022-11-03T00:10:18.442Z,99883.63
2022-11-03T00:13:06.384Z,99884.50
2022-11-03T00:15:54.149Z,99894.78
2022-11-03T00:18:41.851Z,99894.06
2022-11-03T00:21:30.921Z,99888.03
2022-11-03T00:24:18.592Z,99889.66
2022-11-03T00:27:09.868Z,99877.63
2022-11-03T00:29:57.525Z,99865.50
2022-11-03T00:32:45.154Z,99875.13
2022-11-03T00:35:33.383Z,99865.00
2022-11-03T00:38:20.851Z,99861.41
2022-11-03T00:41:08.801Z,99865.59
2022-11-03T00:43:58.535Z,99860.38
2022-11-03T00:46:46.030Z,99853.00
2022-11-03T00:49:33.624Z,99851.88
2022-11-03T00:52:21.274Z,99837.72
2022-11-03T00:55:09.419Z,99837.13
2022-11-03T00:57:56.869Z,99829.19
2022-11-03T01:00:45.637Z,99827.75
2022-11-03T01:03:35.491Z,99808.50
2022-11-03T01:06:42.708Z,99822.88
2022-11-03T01:09:32.319Z,99833.28
2022-11-03T01:15:23.638Z,99832.34
2022-11-03T01:18:19.544Z,99822.38
2022-11-03T01:21:07.768Z,99828.81
2022-11-03T01:23:57.097Z,99821.22
2022-11-03T01:26:45.193Z,99818.84
2022-11-03T01:29:33.243Z,99818.06
2022-11-03T01:32:20.830Z,99809.25
2022-11-03T01:35:23.992Z,99806.28
2022-11-03T01:38:11.386Z,99802.97
2022-11-03T01:41:00.172Z,99804.63
2022-11-03T01:44:24.665Z,99805.97
2022-11-03T01:47:26.545Z,99809.53
2022-11-03T01:50:22.245Z,99797.13
2022-11-03T01:56:36.518Z,99790.84
2022-11-03T01:59:30.841Z,99792.22
2022-11-03T02:02:24.801Z,99787.56
2022-11-03T02:05:28.130Z,99781.38
2022-11-03T02:08:28.461Z,99776.25
2022-11-03T02:11:34.694Z,99781.53
2022-11-03T02:14:27.999Z,99777.41
2022-11-03T02:17:19.601Z,99774.03
2022-11-03T02:20:13.326Z,99766.44
2022-11-03T02:23:24.964Z,99750.84
2022-11-03T02:26:19.998Z,99738.41
2022-11-03T02:29:19.906Z,99740.81
2022-11-03T02:32:22.916Z,99729.97
2022-11-03T02:35:29.775Z,99726.34
2022-11-03T02:38:21.353Z,99728.72
2022-11-03T02:41:22.519Z,99716.16
2022-11-03T02:44:20.327Z,99711.66
2022-11-03T02:47:16.043Z,99714.47
2022-11-03T02:50:14.786Z,99706.88
2022-11-03T02:53:09.381Z,99702.13
2022-11-03T02:56:16.800Z,99691.13
2022-11-03T02:59:11.489Z,99693.72
2022-11-03T03:02:12.129Z,99695.31
2022-11-03T03:05:05.279Z,99684.91
2022-11-03T03:08:01.428Z,99670.75
2022-11-03T03:11:19.155Z,99676.63
2022-11-03T03:14:38.691Z,99670.06
2022-11-03T03:17:34.158Z,99674.28
2022-11-03T03:20:26.372Z,99668.06
2022-11-03T03:23:20.942Z,99663.88
2022-11-03T03:26:23.758Z,99658.66
2022-11-03T03:29:21.065Z,99658.22
2022-11-03T03:32:30.695Z,99658.78
2022-11-03T03:35:30.914Z,99655.16
2022-11-03T03:38:24.536Z,99658.56
2022-11-03T03:44:47.777Z,99644.88
2022-11-03T03:47:41.811Z,99637.72
2022-11-03T03:50:35.410Z,99630.59
2022-11-03T03:53:46.486Z,99633.19
2022-11-03T03:57:05.076Z,99627.66
2022-11-03T04:00:18.215Z,99627.66
2022-11-03T04:03:22.890Z,99617.25
2022-11-03T04:06:14.268Z,99612.84
2022-11-03T04:09:18.989Z,99607.72
2022-11-03T04:12:41.704Z,99615.53
2022-11-03T04:15:53.103Z,99615.94
2022-11-03T04:19:07.244Z,99610.16
2022-11-03T04:22:22.618Z,99612.03
2022-11-03T04:29:01.476Z,99603.75
2022-11-03T04:31:59.914Z,99600.00
2022-11-03T04:35:39.080Z,99593.13
2022-11-03T04:42:17.259Z,99597.63
2022-11-03T04:45:41.810Z,99590.25
2022-11-03T04:50:10.876Z,99592.06
2022-11-03T04:56:53.086Z,99578.25
2022-11-03T05:00:23.687Z,99576.25
2022-11-03T05:08:35.867Z,99546.16
2022-11-03T05:11:36.597Z,99562.78
2022-11-03T05:14:45.793Z,99552.38
2022-11-03T05:32:40.685Z,99518.56
2022-11-03T05:35:28.582Z,99515.97
2022-11-03T05:38:20.609Z,99517.00
2022-11-03T05:41:17.940Z,99517.97
2022-11-03T05:44:33.501Z,99505.09
2022-11-03T05:47:48.513Z,99502.72
2022-11-03T05:50:38.634Z,99508.50
2022-11-03T05:53:34.112Z,99504.44
2022-11-03T06:00:30.285Z,99509.22
2022-11-03T06:03:35.486Z,99508.63
2022-11-03T06:06:34.258Z,99504.88
2022-11-03T06:09:33.217Z,99491.31
2022-11-03T06:12:33.409Z,99492.00
2022-11-03T06:19:08.735Z,99467.19
2022-11-03T06:22:52.374Z,99468.44
2022-11-03T06:29:51.589Z,99450.53
2022-11-03T06:32:39.525Z,99452.84
2022-11-03T06:35:29.702Z,99456.34
2022-11-03T06:38:28.512Z,99443.16
2022-11-03T06:41:27.188Z,99449.91
2022-11-03T06:44:27.916Z,99450.72
2022-11-03T06:48:05.795Z,99457.56
2022-11-03T06:51:11.362Z,99459.16
2022-11-03T06:54:28.218Z,99452.59
2022-11-03T07:01:48.651Z,99441.97
2022-11-03T07:04:43.979Z,99440.34
2022-11-03T07:07:37.432Z,99436.59
2022-11-03T07:20:08.592Z,99418.16
2022-11-03T07:23:20.740Z,99412.22
2022-11-03T07:26:48.710Z,99414.81
2022-11-03T07:29:34.856Z,99396.97
2022-11-03T07:50:01.968Z,99354.97
2022-11-03T07:52:54.369Z,99355.59
2022-11-03T07:59:36.001Z,99325.16
2022-11-03T08:03:21.342Z,99327.84
2022-11-03T08:09:21.151Z,99323.50
2022-11-03T08:18:42.418Z,99289.59
2022-11-03T08:21:46.117Z,99278.88
2022-11-03T08:24:24.985Z,99280.13
2022-11-03T08:26:55.454Z,99270.88
2022-11-03T08:33:14.390Z,99263.28
2022-11-03T08:35:45.326Z,99245.41
2022-11-03T08:38:16.431Z,99244.88
2022-11-03T08:41:05.709Z,99239.66
2022-11-03T08:44:45.381Z,99245.97
2022-11-03T08:54:37.204Z,99251.69
2022-11-03T08:57:21.578Z,99249.53
2022-11-03T09:04:42.797Z,99260.78
2022-11-03T09:10:34.396Z,99247.19
2022-11-03T09:13:05.828Z,99240.88
2022-11-03T09:15:35.775Z,99228.81
2022-11-03T09:18:05.871Z,99228.47
2022-11-03T09:20:35.776Z,99226.06
2022-11-03T09:23:05.168Z,99220.50
2022-11-03T09:25:35.960Z,99213.63
2022-11-03T09:28:06.204Z,99216.25
2022-11-03T09:30:35.966Z,99219.19
2022-11-03T09:33:05.868Z,99213.13
2022-11-03T09:35:35.458Z,99211.09
2022-11-03T09:38:05.113Z,99208.47
2022-11-03T09:40:37.195Z,99207.94
2022-11-03T09:43:07.117Z,99200.34
2022-11-03T09:45:36.891Z,99194.31
2022-11-03T09:48:07.260Z,99184.94
2022-11-03T09:50:37.720Z,99177.84
2022-11-03T09:53:10.829Z,99171.56
2022-11-03T09:55:41.964Z,99162.38
2022-11-03T09:58:16.876Z,99159.00
2022-11-03T10:00:46.726Z,99154.53
2022-11-03T10:03:20.419Z,99152.97
2022-11-03T10:05:50.079Z,99151.16
2022-11-03T10:08:27.096Z,99160.63
2022-11-03T10:10:59.315Z,99149.09
2022-11-03T10:13:31.902Z,99141.75
2022-11-03T10:16:05.308Z,99133.34
2022-11-03T10:18:35.692Z,99131.75
2022-11-03T10:21:08.458Z,99125.47
2022-11-03T10:23:38.127Z,99129.38
2022-11-03T10:26:13.839Z,99099.97
2022-11-03T10:29:00.419Z,99111.72
2022-11-03T10:31:37.714Z,99103.78
2022-11-03T10:34:25.753Z,99086.41
2022-11-03T10:37:17.357Z,99082.13
2022-11-03T10:39:47.857Z,99086.81
2022-11-03T10:42:25.820Z,99082.00
2022-11-03T10:45:13.086Z,99078.25
2022-11-03T10:47:42.751Z,99078.66
2022-11-03T10:50:24.645Z,99078.09
2022-11-03T10:52:55.186Z,99083.56
2022-11-03T10:55:27.091Z,99059.81
2022-11-03T10:57:59.645Z,99052.75
2022-11-03T11:00:29.062Z,99041.91
2022-11-03T11:03:01.850Z,99032.97
2022-11-03T11:05:31.354Z,99031.41
2022-11-03T11:08:02.342Z,99019.63
2022-11-03T11:10:33.181Z,99015.94
2022-11-03T11:13:25.974Z,99013.34
2022-11-03T11:15:57.509Z,99007.34
2022-11-03T11:19:12.839Z,99000.00
2022-11-03T11:22:23.008Z,98995.06
2022-11-03T11:25:01.688Z,99005.56
2022-11-03T11:27:58.699Z,98991.44
2022-11-03T11:31:20.022Z,98985.44
2022-11-03T11:33:51.276Z,98987.81
2022-11-03T11:36:26.688Z,98979.72
2022-11-03T11:39:01.526Z,98975.28
2022-11-03T11:42:12.070Z,98975.28
2022-11-03T11:44:59.568Z,98971.59
2022-11-03T11:47:36.491Z,98967.97
2022-11-03T11:50:33.467Z,98974.56
2022-11-03T11:53:15.846Z,98966.50
2022-11-03T11:55:52.864Z,98980.19
2022-11-03T11:58:37.629Z,98989.97
2022-11-03T12:01:22.855Z,98994.53
2022-11-03T12:03:55.103Z,98984.88
2022-11-03T12:06:36.989Z,98975.47
2022-11-03T12:09:08.273Z,98958.97
2022-11-03T12:11:47.608Z,98952.66
2022-11-03T12:14:26.850Z,98942.44
2022-11-03T12:16:57.104Z,98932.75
2022-11-03T12:19:44.389Z,98930.41
2022-11-03T12:22:41.894Z,98922.31
2022-11-03T12:25:37.419Z,98895.81
2022-11-03T12:28:07.176Z,98907.06
2022-11-03T12:30:40.118Z,98888.41
2022-11-03T12:33:11.026Z,98880.81
2022-11-03T12:35:40.864Z,98880.06
2022-11-03T12:38:11.772Z,98877.16
2022-11-03T12:40:41.562Z,98882.41
2022-11-03T12:43:11.283Z,98879.72
2022-11-03T12:45:41.500Z,98861.63
2022-11-03T12:48:11.035Z,98856.38
2022-11-03T12:50:40.869Z,98855.84
2022-11-03T12:53:14.707Z,98860.00
2022-11-03T12:55:44.994Z,98855.03
2022-11-03T12:58:14.718Z,98854.19
2022-11-03T13:00:52.143Z,98848.16
2022-11-03T13:03:24.833Z,98841.34
2022-11-03T13:05:54.671Z,98839.28
2022-11-03T13:08:26.069Z,98825.16
2022-11-03T13:10:55.616Z,98817.56
2022-11-03T13:13:26.136Z,98825.69
2022-11-03T13:15:55.780Z,98820.44
2022-11-03T13:18:26.281Z,98803.13
2022-11-03T13:20:56.093Z,98794.69
2022-11-03T13:23:27.342Z,98783.66
2022-11-03T13:25:56.967Z,98784.16
2022-11-03T13:28:26.751Z,98780.47
2022-11-03T13:30:56.673Z,98763.38
2022-11-03T13:33:26.328Z,98757.38
2022-11-03T13:35:55.924Z,98761.28
2022-11-03T13:38:27.235Z,98749.97
2022-11-03T13:41:01.161Z,98727.66
2022-11-03T13:43:33.332Z,98709.56
2022-11-03T13:46:04.441Z,98710.34
2022-11-03T13:51:23.946Z,98696.47
2022-11-03T13:59:35.038Z,98679.97
2022-11-03T14:04:54.324Z,98680.81
2022-11-03T14:07:23.880Z,98677.41
2022-11-03T14:09:56.874Z,98667.47
2022-11-03T14:12:35.763Z,98645.50
2022-11-03T14:15:08.782Z,98644.69
2022-11-03T14:17:38.756Z,98643.38
2022-11-03T14:20:13.688Z,98651.53
2022-11-03T14:22:43.161Z,98647.88
2022-11-03T14:25:15.831Z,98650.50
2022-11-03T14:27:46.762Z,98659.44
2022-11-03T14:30:16.484Z,98653.47
2022-11-03T14:32:45.873Z,98642.47
2022-11-03T14:35:15.279Z,98637.50
2022-11-03T14:37:44.829Z,98644.31
2022-11-03T14:40:36.960Z,98628.44
2022-11-03T14:43:05.596Z,98631.09
2022-11-03T14:45:38.349Z,98625.09
2022-11-03T14:48:10.990Z,98614.09
2022-11-03T14:50:40.331Z,98618.50
2022-11-03T14:53:09.836Z,98604.88
2022-11-03T14:55:40.646Z,98601.41
2022-11-03T14:58:10.196Z,98598.00
2022-11-03T15:00:42.671Z,98577.28
2022-11-03T15:03:17.510Z,98577.28
2022-11-03T15:05:47.092Z,98574.97
2022-11-03T15:08:19.872Z,98556.94
2022-11-03T15:10:51.097Z,98571.84
2022-11-03T15:13:20.896Z,98562.47
2022-11-03T15:15:50.985Z,98562.47
2022-11-03T15:18:21.448Z,98567.72
2022-11-03T15:20:51.197Z,98567.50
2022-11-03T15:26:15.249Z,98562.53
2022-11-03T15:28:44.727Z,98569.63
2022-11-03T15:31:15.898Z,98562.53
2022-11-03T15:33:45.328Z,98553.16
2022-11-03T15:36:16.112Z,98554.25
2022-11-03T15:38:45.365Z,98554.00
2022-11-03T15:41:19.530Z,98543.59
2022-11-03T15:43:50.526Z,98550.94
2022-11-03T15:46:20.558Z,98526.31
2022-11-03T15:48:50.040Z,98534.44
2022-11-03T15:51:20.410Z,98540.72
2022-11-03T15:53:54.906Z,98517.38
2022-11-03T15:56:28.692Z,98499.84
2022-11-03T15:58:58.008Z,98504.78
2022-11-03T16:01:27.441Z,98483.84
2022-11-03T16:03:56.836Z,98480.97
2022-11-03T16:06:46.665Z,98486.97
2022-11-03T16:09:15.365Z,98473.91
2022-11-03T16:11:46.046Z,98482.25
2022-11-03T16:14:15.272Z,98461.13
2022-11-03T16:16:44.460Z,98466.88
2022-11-03T16:19:13.923Z,98455.88
2022-11-03T16:21:43.366Z,98449.16
2022-11-03T16:24:12.636Z,98451.72
2022-11-03T16:26:41.942Z,98451.50
2022-11-03T16:29:12.637Z,98454.88
2022-11-03T16:31:41.765Z,98452.78
2022-11-03T16:34:11.087Z,98451.22
2022-11-03T16:36:40.301Z,98450.44
2022-11-03T16:39:10.732Z,98447.59
2022-11-03T16:41:40.200Z,98447.31
2022-11-03T16:44:09.422Z,98450.50
2022-11-03T16:46:39.930Z,98440.09
2022-11-03T16:49:09.356Z,98439.53
2022-11-03T16:51:38.596Z,98439.47
2022-11-03T16:54:07.750Z,98435.84
2022-11-03T16:56:36.913Z,98445.13
2022-11-03T16:59:06.144Z,98431.59
2022-11-03T17:01:35.251Z,98441.78
2022-11-03T17:04:06.451Z,98443.94
2022-11-03T17:06:35.560Z,98440.59
2022-11-03T17:09:05.521Z,98440.59
2022-11-03T17:11:37.423Z,98432.28
2022-11-03T17:14:08.817Z,98438.56
2022-11-03T17:16:38.042Z,98423.41
2022-11-03T17:19:08.601Z,98418.16
2022-11-03T17:21:37.695Z,98411.94
2022-11-03T17:24:07.720Z,98401.81
2022-11-03T17:26:46.929Z,98398.69
2022-11-03T17:29:19.768Z,98396.13
2022-11-03T17:31:49.412Z,98381.75
2022-11-03T17:34:24.212Z,98383.59
2022-11-03T17:36:54.734Z,98384.63
2022-11-03T17:39:30.360Z,98377.56
2022-11-03T17:42:17.860Z,98371.84
2022-11-03T17:44:49.123Z,98365.56
2022-11-03T17:47:19.806Z,98371.84
2022-11-03T17:49:51.311Z,98362.41
2022-11-03T17:52:26.845Z,98343.88
2022-11-03T17:54:59.178Z,98337.81
2022-11-03T17:57:28.805Z,98330.16
2022-11-03T18:00:00.430Z,98333.84
2022-11-03T18:02:32.912Z,98319.25
2022-11-03T18:05:22.647Z,98330.50
2022-11-03T18:07:52.884Z,98331.78
2022-11-03T18:10:23.305Z,98325.28
2022-11-03T18:13:11.059Z,98353.84
2022-11-03T18:15:42.087Z,98356.09
2022-11-03T18:18:15.913Z,98371.06
2022-11-03T18:20:53.308Z,98363.28
2022-11-03T18:23:24.598Z,98362.25
2022-11-03T18:25:55.517Z,98357.06
2022-11-03T18:28:24.719Z,98339.53
2022-11-03T18:30:56.699Z,98329.84
2022-11-03T18:33:29.305Z,98330.59
2022-11-03T18:36:03.039Z,98323.47
2022-11-03T18:38:32.529Z,98325.56
2022-11-03T18:41:01.763Z,98329.75
2022-11-03T18:43:31.217Z,98330.25
2022-11-03T18:46:00.941Z,98328.41
2022-11-03T18:48:30.260Z,98312.91
2022-11-03T18:51:00.873Z,98294.31
2022-11-03T18:53:31.766Z,98296.94
2022-11-03T18:56:02.701Z,98299.53
2022-11-03T18:58:34.670Z,98299.81
2022-11-03T19:01:03.854Z,98312.63
2022-11-03T19:03:33.116Z,98317.03
2022-11-03T19:06:03.808Z,98307.34
2022-11-03T19:08:34.649Z,98305.00
2022-11-03T19:11:04.746Z,98304.94
2022-11-03T19:13:37.635Z,98307.56
2022-11-03T19:16:19.172Z,98309.19
2022-11-03T19:18:48.992Z,98325.69
2022-11-03T19:21:23.410Z,98316.59
2022-11-03T19:23:58.465Z,98323.94
2022-11-03T19:26:30.639Z,98316.16
2022-11-03T19:29:02.774Z,98307.84
2022-11-03T19:31:36.364Z,98293.19
2022-11-03T19:34:08.731Z,98291.06
2022-11-03T19:36:40.260Z,98293.13
2022-11-03T19:39:16.394Z,98280.13
2022-11-03T19:42:03.107Z,98274.88
2022-11-03T19:44:32.322Z,98277.97
2022-11-03T19:47:01.809Z,98274.38
2022-11-03T19:49:31.350Z,98272.25
2022-11-03T19:52:01.877Z,98281.59
2022-11-03T19:54:31.048Z,98266.47
2022-11-03T19:57:00.378Z,98277.97
2022-11-03T19:59:29.692Z,98274.81
2022-11-03T20:01:59.016Z,98274.88
2022-11-03T20:04:28.144Z,98269.94
2022-11-03T20:06:57.851Z,98263.19
2022-11-03T20:12:07.607Z,98251.72
2022-11-03T20:14:36.744Z,98252.50
2022-11-03T20:17:14.952Z,98245.16
2022-11-03T20:19:44.615Z,98243.31
2022-11-03T20:22:18.623Z,98241.19
2022-11-03T20:24:50.277Z,98238.84
2022-11-03T20:27:20.892Z,98237.28
2022-11-03T20:29:50.122Z,98237.28
2022-11-03T20:32:19.425Z,98232.56
2022-11-03T20:34:49.369Z,98224.13
2022-11-03T20:37:20.410Z,98225.72
2022-11-03T20:39:51.146Z,98241.63
2022-11-03T20:42:23.981Z,98243.97
2022-11-03T20:44:53.758Z,98241.69
2022-11-03T20:47:23.298Z,98236.19
2022-11-03T20:49:52.405Z,98234.59
2022-11-03T20:52:21.683Z,98234.69
2022-11-03T20:54:52.347Z,98224.25
2022-11-03T20:57:21.619Z,98224.84
2022-11-03T20:59:50.823Z,98227.75
2022-11-03T21:02:20.067Z,98222.28
2022-11-03T21:05:15.735Z,98221.78
2022-11-03T21:08:03.359Z,98211.66
2022-11-03T21:10:53.925Z,98214.28
2022-11-03T21:13:48.017Z,98210.59
2022-11-03T21:16:54.350Z,98193.13
2022-11-03T21:20:02.882Z,98193.13
2022-11-03T21:22:56.308Z,98188.66
2022-11-03T21:25:43.577Z,98191.00
2022-11-03T21:28:32.268Z,98194.19
2022-11-03T21:31:19.907Z,98194.72
2022-11-03T21:34:07.709Z,98196.16
2022-11-03T21:36:55.220Z,98199.16
2022-11-03T21:39:43.076Z,98203.50
2022-11-03T21:42:48.217Z,98210.09
2022-11-03T21:45:37.724Z,98202.09
2022-11-03T21:51:52.593Z,98202.09
2022-11-03T21:54:41.493Z,98227.22
2022-11-03T21:57:30.315Z,98231.50
2022-11-03T22:00:21.541Z,98226.59
2022-11-03T22:03:11.574Z,98239.97
2022-11-03T22:07:12.556Z,98226.47
2022-11-03T22:10:03.681Z,98229.59
2022-11-03T22:12:55.523Z,98246.28
2022-11-03T22:16:00.726Z,98262.22
2022-11-03T22:18:49.564Z,98274.50
2022-11-03T22:21:54.988Z,98277.16
2022-11-03T22:25:00.106Z,98284.47
2022-11-03T22:27:48.215Z,98287.34
2022-11-03T22:30:53.196Z,98294.91
2022-11-03T22:40:34.407Z,98307.50
2022-11-03T22:43:39.367Z,98312.25
2022-11-03T22:46:26.934Z,98301.78
2022-11-03T22:49:17.063Z,98318.50
2022-11-03T22:52:05.251Z,98333.13
2022-11-03T22:54:54.280Z,98315.13
2022-11-03T22:57:43.234Z,98320.09
2022-11-03T23:00:33.850Z,98326.63
2022-11-03T23:03:23.542Z,98338.41
2022-11-03T23:06:48.170Z,98339.47
2022-11-03T23:09:35.363Z,98355.94
2022-11-03T23:12:24.182Z,98361.91
2022-11-03T23:15:29.304Z,98351.47
2022-11-03T23:18:36.502Z,98365.59
2022-11-03T23:21:23.927Z,98388.56
2022-11-03T23:24:28.926Z,98387.00
2022-11-03T23:27:16.213Z,98382.31
2022-11-03T23:30:05.901Z,98377.38
2022-11-03T23:32:53.783Z,98364.56
2022-11-03T23:35:41.044Z,98367.19
2022-11-03T23:38:28.319Z,98382.84
2022-11-03T23:41:18.593Z,98383.63
2022-11-03T23:44:06.614Z,98394.88
2022-11-03T23:47:12.979Z,98403.22
2022-11-03T23:50:00.273Z,98401.13
2022-11-03T23:52:47.539Z,98422.25
2022-11-03T23:56:01.286Z,98427.25
2022-11-03T23:58:49.413Z,98427.25
